sensor_id;sensor_type;location;lat;lon;timestamp;pressure;altitude;pressure_sealevel;temperature;humidity
67727;BME280;54525;55.680;37.540;2022-09-17T00:00:37;97701.88;;;18.57;55.79
67727;BME280;54525;55.680;37.540;2022-09-17T00:03:03;97701.25;;;18.55;55.74
67727;BME280;54525;55.680;37.540;2022-09-17T00:05:29;97699.84;;;18.53;55.83
67727;BME280;54525;55.680;37.540;2022-09-17T00:07:55;97709.72;;;18.52;55.62
67727;BME280;54525;55.680;37.540;2022-09-17T00:10:20;97707.69;;;18.48;55.63
67727;BME280;54525;55.680;37.540;2022-09-17T00:12:47;97708.72;;;18.47;55.71
67727;BME280;54525;55.680;37.540;2022-09-17T00:15:13;97708.13;;;18.44;55.79
67727;BME280;54525;55.680;37.540;2022-09-17T00:17:39;97710.19;;;18.42;55.75
67727;BME280;54525;55.680;37.540;2022-09-17T00:20:06;97715.78;;;18.41;55.70
67727;BME280;54525;55.680;37.540;2022-09-17T00:22:34;97710.84;;;18.38;55.71
67727;BME280;54525;55.680;37.540;2022-09-17T00:25:00;97712.91;;;18.36;55.59
67727;BME280;54525;55.680;37.540;2022-09-17T00:27:25;97712.31;;;18.34;55.50
67727;BME280;54525;55.680;37.540;2022-09-17T00:29:51;97708.22;;;18.31;55.44
67727;BME280;54525;55.680;37.540;2022-09-17T00:32:16;97720.78;;;18.30;55.37
67727;BME280;54525;55.680;37.540;2022-09-17T00:34:42;97714.84;;;18.28;55.45
67727;BME280;54525;55.680;37.540;2022-09-17T00:37:07;97728.41;;;18.27;55.51
67727;BME280;54525;55.680;37.540;2022-09-17T00:39:33;97725.13;;;18.25;55.32
67727;BME280;54525;55.680;37.540;2022-09-17T00:41:58;97724.31;;;18.24;55.40
67727;BME280;54525;55.680;37.540;2022-09-17T00:44:47;97733.38;;;18.23;55.15
67727;BME280;54525;55.680;37.540;2022-09-17T00:50:05;97732.16;;;18.19;55.32
67727;BME280;54525;55.680;37.540;2022-09-17T00:52:36;97738.56;;;18.18;55.31
67727;BME280;54525;55.680;37.540;2022-09-17T00:55:09;97736.09;;;18.17;55.32
67727;BME280;54525;55.680;37.540;2022-09-17T00:57:38;97740.84;;;18.14;55.12
67727;BME280;54525;55.680;37.540;2022-09-17T01:00:05;97739.19;;;18.13;55.19
67727;BME280;54525;55.680;37.540;2022-09-17T01:02:33;97742.91;;;18.12;55.27
67727;BME280;54525;55.680;37.540;2022-09-17T01:04:58;97740.47;;;18.11;55.37
67727;BME280;54525;55.680;37.540;2022-09-17T01:27:13;97743.81;;;17.99;54.90
67727;BME280;54525;55.680;37.540;2022-09-17T01:32:17;97742.34;;;17.97;54.83
67727;BME280;54525;55.680;37.540;2022-09-17T01:35:02;97740.69;;;17.96;54.83
67727;BME280;54525;55.680;37.540;2022-09-17T01:37:35;97738.25;;;17.94;54.87
67727;BME280;54525;55.680;37.540;2022-09-17T01:41:15;97749.75;;;17.95;54.83
67727;BME280;54525;55.680;37.540;2022-09-17T01:43:23;97746.50;;;17.93;54.70
67727;BME280;54525;55.680;37.540;2022-09-17T01:45:54;97742.97;;;17.92;54.76
67727;BME280;54525;55.680;37.540;2022-09-17T01:48:26;97744.00;;;17.91;54.76
67727;BME280;54525;55.680;37.540;2022-09-17T01:51:04;97750.41;;;17.90;54.73
67727;BME280;54525;55.680;37.540;2022-09-17T01:53:38;97748.75;;;17.89;54.63
67727;BME280;54525;55.680;37.540;2022-09-17T01:56:08;97747.31;;;17.87;54.66
67727;BME280;54525;55.680;37.540;2022-09-17T01:58:41;97752.91;;;17.85;54.58
67727;BME280;54525;55.680;37.540;2022-09-17T02:01:11;97748.59;;;17.84;54.57
67727;BME280;54525;55.680;37.540;2022-09-17T02:03:44;97757.03;;;17.81;54.46
67727;BME280;54525;55.680;37.540;2022-09-17T02:06:14;97761.53;;;17.80;54.69
67727;BME280;54525;55.680;37.540;2022-09-17T02:09:04;97767.34;;;17.77;54.45
67727;BME280;54525;55.680;37.540;2022-09-17T02:11:33;97759.50;;;17.76;54.45
67727;BME280;54525;55.680;37.540;2022-09-17T02:14:27;97757.84;;;17.75;54.54
67727;BME280;54525;55.680;37.540;2022-09-17T02:17:06;97759.91;;;17.73;54.68
67727;BME280;54525;55.680;37.540;2022-09-17T02:19:36;97774.34;;;17.72;54.55
67727;BME280;54525;55.680;37.540;2022-09-17T02:22:42;97769.19;;;17.70;54.85
67727;BME280;54525;55.680;37.540;2022-09-17T02:25:27;97768.56;;;17.68;54.40
67727;BME280;54525;55.680;37.540;2022-09-17T02:28:10;97770.63;;;17.66;54.42
67727;BME280;54525;55.680;37.540;2022-09-17T02:30:38;97769.81;;;17.65;54.58
67727;BME280;54525;55.680;37.540;2022-09-17T02:33:05;97770.84;;;17.64;54.60
67727;BME280;54525;55.680;37.540;2022-09-17T02:35:32;97766.31;;;17.65;54.44
67727;BME280;54525;55.680;37.540;2022-09-17T02:37:58;97766.53;;;17.63;54.26
67727;BME280;54525;55.680;37.540;2022-09-17T02:40:26;97774.78;;;17.62;54.40
67727;BME280;54525;55.680;37.540;2022-09-17T02:43:07;97767.97;;;17.59;54.36
67727;BME280;54525;55.680;37.540;2022-09-17T02:54:31;97781.78;;;17.56;54.14
67727;BME280;54525;55.680;37.540;2022-09-17T03:00:08;97781.59;;;17.51;54.27
67727;BME280;54525;55.680;37.540;2022-09-17T03:02:45;97782.63;;;17.50;54.32
67727;BME280;54525;55.680;37.540;2022-09-17T03:05:13;97786.31;;;17.49;54.12
67727;BME280;54525;55.680;37.540;2022-09-17T03:07:41;97789.00;;;17.49;54.21
67727;BME280;54525;55.680;37.540;2022-09-17T03:10:06;97785.72;;;17.47;54.28
67727;BME280;54525;55.680;37.540;2022-09-17T03:12:33;97786.53;;;17.47;54.21
67727;BME280;54525;55.680;37.540;2022-09-17T03:14:58;97791.06;;;17.47;54.18
67727;BME280;54525;55.680;37.540;2022-09-17T03:17:25;97790.25;;;17.46;54.28
67727;BME280;54525;55.680;37.540;2022-09-17T03:19:50;97804.63;;;17.45;54.19
67727;BME280;54525;55.680;37.540;2022-09-17T03:22:16;97801.97;;;17.45;54.16
67727;BME280;54525;55.680;37.540;2022-09-17T03:24:41;97804.84;;;17.44;54.27
67727;BME280;54525;55.680;37.540;2022-09-17T03:27:06;97803.19;;;17.43;54.18
67727;BME280;54525;55.680;37.540;2022-09-17T03:29:32;97818.00;;;17.45;54.09
67727;BME280;54525;55.680;37.540;2022-09-17T03:31:57;97815.13;;;17.47;54.14
67727;BME280;54525;55.680;37.540;2022-09-17T03:34:23;97815.13;;;17.47;53.97
67727;BME280;54525;55.680;37.540;2022-09-17T03:36:49;97817.78;;;17.47;53.89
67727;BME280;54525;55.680;37.540;2022-09-17T03:39:14;97811.63;;;17.46;54.07
67727;BME280;54525;55.680;37.540;2022-09-17T03:41:40;97805.44;;;17.46;53.84
67727;BME280;54525;55.680;37.540;2022-09-17T03:44:05;97808.13;;;17.46;53.91
67727;BME280;54525;55.680;37.540;2022-09-17T03:46:31;97811.63;;;17.46;53.94
67727;BME280;54525;55.680;37.540;2022-09-17T03:48:56;97816.16;;;17.46;53.88
67727;BME280;54525;55.680;37.540;2022-09-17T03:51:22;97821.50;;;17.46;53.81
67727;BME280;54525;55.680;37.540;2022-09-17T03:53:47;97822.53;;;17.45;53.69
67727;BME280;54525;55.680;37.540;2022-09-17T03:56:13;97818.19;;;17.44;53.84
67727;BME280;54525;55.680;37.540;2022-09-17T03:58:39;97820.06;;;17.43;53.83
67727;BME280;54525;55.680;37.540;2022-09-17T04:01:04;97818.41;;;17.42;53.89
67727;BME280;54525;55.680;37.540;2022-09-17T04:03:30;97822.75;;;17.43;53.63
67727;BME280;54525;55.680;37.540;2022-09-17T04:05:56;97824.56;;;17.43;53.77
67727;BME280;54525;55.680;37.540;2022-09-17T04:08:22;97826.44;;;17.42;53.53
67727;BME280;54525;55.680;37.540;2022-09-17T04:10:47;97838.16;;;17.41;53.64
67727;BME280;54525;55.680;37.540;2022-09-17T04:13:14;97837.13;;;17.42;53.53
67727;BME280;54525;55.680;37.540;2022-09-17T04:15:40;97831.56;;;17.44;53.54
67727;BME280;54525;55.680;37.540;2022-09-17T04:18:06;97832.59;;;17.43;53.55
67727;BME280;54525;55.680;37.540;2022-09-17T04:20:31;97839.59;;;17.44;53.52
67727;BME280;54525;55.680;37.540;2022-09-17T04:22:57;97844.75;;;17.45;53.41
67727;BME280;54525;55.680;37.540;2022-09-17T04:25:22;97845.56;;;17.46;53.42
67727;BME280;54525;55.680;37.540;2022-09-17T04:27:48;97846.16;;;17.48;53.33
67727;BME280;54525;55.680;37.540;2022-09-17T04:30:14;97835.88;;;17.51;53.23
67727;BME280;54525;55.680;37.540;2022-09-17T04:32:40;97842.06;;;17.52;53.16
67727;BME280;54525;55.680;37.540;2022-09-17T04:35:05;97845.34;;;17.54;53.13
67727;BME280;54525;55.680;37.540;2022-09-17T04:37:31;97844.09;;;17.57;53.00
67727;BME280;54525;55.680;37.540;2022-09-17T04:39:56;97849.47;;;17.57;52.69
67727;BME280;54525;55.680;37.540;2022-09-17T04:42:22;97844.09;;;17.57;52.81
67727;BME280;54525;55.680;37.540;2022-09-17T04:44:48;97844.94;;;17.57;52.69
67727;BME280;54525;55.680;37.540;2022-09-17T04:47:13;97847.41;;;17.59;52.79
67727;BME280;54525;55.680;37.540;2022-09-17T04:49:39;97846.56;;;17.58;52.71
67727;BME280;54525;55.680;37.540;2022-09-17T04:52:04;97856.03;;;17.61;52.74
67727;BME280;54525;55.680;37.540;2022-09-17T04:54:30;97857.47;;;17.63;52.75
67727;BME280;54525;55.680;37.540;2022-09-17T04:56:55;97859.34;;;17.63;52.70
67727;BME280;54525;55.680;37.540;2022-09-17T04:59:21;97863.44;;;17.65;52.57
67727;BME280;54525;55.680;37.540;2022-09-17T05:01:46;97865.09;;;17.66;52.57
67727;BME280;54525;55.680;37.540;2022-09-17T05:04:11;97864.06;;;17.67;52.51
67727;BME280;54525;55.680;37.540;2022-09-17T05:06:37;97867.34;;;17.69;52.19
67727;BME280;54525;55.680;37.540;2022-09-17T05:09:02;97869.41;;;17.74;52.08
67727;BME280;54525;55.680;37.540;2022-09-17T05:11:28;97872.25;;;17.79;51.95
67727;BME280;54525;55.680;37.540;2022-09-17T05:13:53;97868.53;;;17.87;51.70
67727;BME280;54525;55.680;37.540;2022-09-17T05:16:19;97863.19;;;17.94;51.36
67727;BME280;54525;55.680;37.540;2022-09-17T05:18:45;97864.00;;;18.01;51.28
67727;BME280;54525;55.680;37.540;2022-09-17T05:21:10;97874.31;;;18.04;51.33
67727;BME280;54525;55.680;37.540;2022-09-17T05:23:36;97873.66;;;18.09;51.28
67727;BME280;54525;55.680;37.540;2022-09-17T05:26:01;97875.50;;;18.15;51.23
67727;BME280;54525;55.680;37.540;2022-09-17T05:28:27;97882.91;;;18.20;51.15
67727;BME280;54525;55.680;37.540;2022-09-17T05:30:53;97887.00;;;18.22;51.27
67727;BME280;54525;55.680;37.540;2022-09-17T05:33:18;97891.94;;;18.25;51.23
67727;BME280;54525;55.680;37.540;2022-09-17T05:35:44;97887.22;;;18.27;51.44
67727;BME280;54525;55.680;37.540;2022-09-17T05:38:10;97887.81;;;18.29;51.34
67727;BME280;54525;55.680;37.540;2022-09-17T05:40:35;97892.16;;;18.30;51.43
67727;BME280;54525;55.680;37.540;2022-09-17T05:43:04;97898.09;;;18.33;51.66
67727;BME280;54525;55.680;37.540;2022-09-17T05:45:31;97900.56;;;18.34;51.67
67727;BME280;54525;55.680;37.540;2022-09-17T05:48:00;97890.88;;;18.33;51.76
67727;BME280;54525;55.680;37.540;2022-09-17T05:50:27;97902.63;;;18.32;51.62
67727;BME280;54525;55.680;37.540;2022-09-17T05:52:53;97906.13;;;18.33;51.89
67727;BME280;54525;55.680;37.540;2022-09-17T05:55:20;97908.78;;;18.33;51.86
67727;BME280;54525;55.680;37.540;2022-09-17T05:57:49;97909.81;;;18.32;52.00
67727;BME280;54525;55.680;37.540;2022-09-17T06:00:16;97907.16;;;18.32;52.00
67727;BME280;54525;55.680;37.540;2022-09-17T06:02:41;97906.34;;;18.31;52.13
67727;BME280;54525;55.680;37.540;2022-09-17T06:05:07;97914.97;;;18.33;52.27
67727;BME280;54525;55.680;37.540;2022-09-17T06:07:37;97917.66;;;18.33;52.30
67727;BME280;54525;55.680;37.540;2022-09-17T06:10:04;97914.56;;;18.36;52.38
67727;BME280;54525;55.680;37.540;2022-09-17T06:12:30;97914.56;;;18.36;52.35
67727;BME280;54525;55.680;37.540;2022-09-17T06:14:56;97911.66;;;18.38;52.28
67727;BME280;54525;55.680;37.540;2022-09-17T06:17:22;97916.00;;;18.39;52.45
67727;BME280;54525;55.680;37.540;2022-09-17T06:19:47;97924.63;;;18.41;52.16
67727;BME280;54525;55.680;37.540;2022-09-17T06:22:13;97921.75;;;18.42;52.00
67727;BME280;54525;55.680;37.540;2022-09-17T06:24:38;97925.66;;;18.47;52.25
67727;BME280;54525;55.680;37.540;2022-09-17T06:27:03;97922.75;;;18.48;51.89
67727;BME280;54525;55.680;37.540;2022-09-17T06:29:29;97920.69;;;18.50;51.86
67727;BME280;54525;55.680;37.540;2022-09-17T06:31:55;97922.13;;;18.53;52.02
67727;BME280;54525;55.680;37.540;2022-09-17T06:34:20;97921.06;;;18.54;51.71
67727;BME280;54525;55.680;37.540;2022-09-17T06:36:47;97917.16;;;18.56;51.50
67727;BME280;54525;55.680;37.540;2022-09-17T06:39:13;97919.63;;;18.58;51.50
67727;BME280;54525;55.680;37.540;2022-09-17T06:41:40;97917.34;;;18.61;51.56
67727;BME280;54525;55.680;37.540;2022-09-17T06:44:07;97919.81;;;18.63;51.38
67727;BME280;54525;55.680;37.540;2022-09-17T06:46:33;97915.25;;;18.64;51.26
67727;BME280;54525;55.680;37.540;2022-09-17T06:48:58;97918.56;;;18.66;51.17
67727;BME280;54525;55.680;37.540;2022-09-17T06:51:23;97919.97;;;18.68;51.02
67727;BME280;54525;55.680;37.540;2022-09-17T06:53:49;97928.44;;;18.72;51.13
67727;BME280;54525;55.680;37.540;2022-09-17T06:56:15;97921.59;;;18.76;50.88
67727;BME280;54525;55.680;37.540;2022-09-17T06:58:40;97922.81;;;18.80;50.66
67727;BME280;54525;55.680;37.540;2022-09-17T07:01:08;97930.44;;;18.83;50.63
67727;BME280;54525;55.680;37.540;2022-09-17T07:03:34;97934.34;;;18.87;50.45
67727;BME280;54525;55.680;37.540;2022-09-17T07:06:00;97939.47;;;18.89;50.30
67727;BME280;54525;55.680;37.540;2022-09-17T07:08:26;97931.22;;;18.90;50.27
67727;BME280;54525;55.680;37.540;2022-09-17T07:10:55;97932.84;;;18.91;50.32
67727;BME280;54525;55.680;37.540;2022-09-17T07:13:21;97935.34;;;18.93;50.04
67727;BME280;54525;55.680;37.540;2022-09-17T07:15:58;97939.47;;;18.96;49.85
67727;BME280;54525;55.680;37.540;2022-09-17T07:18:24;97949.97;;;18.97;50.05
67727;BME280;54525;55.680;37.540;2022-09-17T07:20:54;97953.06;;;19.01;49.91
67727;BME280;54525;55.680;37.540;2022-09-17T07:23:25;97948.88;;;19.05;49.66
67727;BME280;54525;55.680;37.540;2022-09-17T07:25:52;97958.00;;;19.04;49.83
67727;BME280;54525;55.680;37.540;2022-09-17T07:28:18;97954.25;;;19.05;49.61
67727;BME280;54525;55.680;37.540;2022-09-17T07:30:44;97954.84;;;19.07;49.52
67727;BME280;54525;55.680;37.540;2022-09-17T07:33:10;97959.19;;;19.08;49.42
67727;BME280;54525;55.680;37.540;2022-09-17T07:35:35;97964.13;;;19.11;49.24
67727;BME280;54525;55.680;37.540;2022-09-17T07:38:01;97961.44;;;19.11;49.24
67727;BME280;54525;55.680;37.540;2022-09-17T07:40:26;97964.75;;;19.13;49.15
67727;BME280;54525;55.680;37.540;2022-09-17T07:42:51;97961.03;;;19.14;48.95
67727;BME280;54525;55.680;37.540;2022-09-17T07:45:18;97975.03;;;19.16;48.85
67727;BME280;54525;55.680;37.540;2022-09-17T07:47:43;97966.75;;;19.18;48.77
67727;BME280;54525;55.680;37.540;2022-09-17T07:50:09;97966.53;;;19.19;48.61
67727;BME280;54525;55.680;37.540;2022-09-17T07:52:35;97970.06;;;19.20;48.78
67727;BME280;54525;55.680;37.540;2022-09-17T07:55:00;97974.38;;;19.21;48.86
67727;BME280;54525;55.680;37.540;2022-09-17T07:57:26;97968.00;;;19.22;48.73
67727;BME280;54525;55.680;37.540;2022-09-17T07:59:51;97972.09;;;19.25;48.58
67727;BME280;54525;55.680;37.540;2022-09-17T08:02:17;97967.75;;;19.24;48.57
67727;BME280;54525;55.680;37.540;2022-09-17T08:04:42;97974.16;;;19.23;48.58
67727;BME280;54525;55.680;37.540;2022-09-17T08:07:11;97977.44;;;19.25;48.60
67727;BME280;54525;55.680;37.540;2022-09-17T08:09:39;97974.78;;;19.25;48.40
67727;BME280;54525;55.680;37.540;2022-09-17T08:12:05;97979.09;;;19.26;48.54
67727;BME280;54525;55.680;37.540;2022-09-17T08:14:31;97964.88;;;19.25;48.55
67727;BME280;54525;55.680;37.540;2022-09-17T08:16:56;97958.06;;;19.23;48.56
67727;BME280;54525;55.680;37.540;2022-09-17T08:19:21;97975.00;;;19.23;48.42
67727;BME280;54525;55.680;37.540;2022-09-17T08:21:47;97964.09;;;19.18;48.43
67727;BME280;54525;55.680;37.540;2022-09-17T08:24:12;97970.47;;;19.17;48.63
67727;BME280;54525;55.680;37.540;2022-09-17T08:26:38;97961.81;;;19.15;48.49
67727;BME280;54525;55.680;37.540;2022-09-17T08:29:04;97963.69;;;19.14;48.48
67727;BME280;54525;55.680;37.540;2022-09-17T08:31:31;97962.06;;;19.13;48.68
67727;BME280;54525;55.680;37.540;2022-09-17T08:33:57;97959.56;;;19.12;48.48
67727;BME280;54525;55.680;37.540;2022-09-17T08:36:24;97959.56;;;19.12;48.29
67727;BME280;54525;55.680;37.540;2022-09-17T08:38:54;97960.41;;;19.12;48.68
67727;BME280;54525;55.680;37.540;2022-09-17T08:41:25;97958.16;;;19.09;48.26
67727;BME280;54525;55.680;37.540;2022-09-17T08:46:25;97966.19;;;19.09;48.47
67727;BME280;54525;55.680;37.540;2022-09-17T08:49:09;97967.03;;;19.10;48.44
67727;BME280;54525;55.680;37.540;2022-09-17T08:57:39;97980.03;;;19.06;48.12
67727;BME280;54525;55.680;37.540;2022-09-17T09:00:16;97977.56;;;19.04;48.23
67727;BME280;54525;55.680;37.540;2022-09-17T09:05:17;97977.56;;;19.04;48.10
67727;BME280;54525;55.680;37.540;2022-09-17T09:07:49;97981.66;;;19.07;47.69
67727;BME280;54525;55.680;37.540;2022-09-17T09:10:29;97980.03;;;19.06;47.38
67727;BME280;54525;55.680;37.540;2022-09-17T09:12:58;97986.41;;;19.05;47.62
67727;BME280;54525;55.680;37.540;2022-09-17T09:18:18;97983.94;;;19.10;46.99
67727;BME280;54525;55.680;37.540;2022-09-17T09:23:56;97985.56;;;19.11;47.42
67727;BME280;54525;55.680;37.540;2022-09-17T09:34:35;97997.53;;;19.15;47.22
67727;BME280;54525;55.680;37.540;2022-09-17T09:37:26;97991.75;;;19.18;47.36
67727;BME280;54525;55.680;37.540;2022-09-17T09:39:55;97991.75;;;19.18;47.04
67727;BME280;54525;55.680;37.540;2022-09-17T09:42:34;97990.66;;;19.19;47.29
67727;BME280;54525;55.680;37.540;2022-09-17T09:45:11;97992.13;;;19.22;47.38
67727;BME280;54525;55.680;37.540;2022-09-17T09:47:54;98002.63;;;19.24;47.32
67727;BME280;54525;55.680;37.540;2022-09-17T09:59:18;98018.06;;;19.28;47.29
67727;BME280;54525;55.680;37.540;2022-09-17T10:01:43;98001.78;;;19.30;47.49
67727;BME280;54525;55.680;37.540;2022-09-17T10:04:22;98004.03;;;19.33;47.10
67727;BME280;54525;55.680;37.540;2022-09-17T10:07:03;97998.66;;;19.33;47.00
67727;BME280;54525;55.680;37.540;2022-09-17T10:09:31;98011.00;;;19.34;47.09
67727;BME280;54525;55.680;37.540;2022-09-17T10:14:38;98007.09;;;19.36;47.03
67727;BME280;54525;55.680;37.540;2022-09-17T10:17:23;98005.03;;;19.39;46.82
67727;BME280;54525;55.680;37.540;2022-09-17T10:22:33;98034.06;;;19.42;47.04
67727;BME280;54525;55.680;37.540;2022-09-17T10:25:00;98011.38;;;19.44;46.62
67727;BME280;54525;55.680;37.540;2022-09-17T10:27:27;98015.09;;;19.43;46.46
67727;BME280;54525;55.680;37.540;2022-09-17T10:32:33;98011.81;;;19.41;46.69
67727;BME280;54525;55.680;37.540;2022-09-17T10:35:23;98023.94;;;19.44;46.58
67727;BME280;54525;55.680;37.540;2022-09-17T10:37:51;98015.09;;;19.43;46.71
67727;BME280;54525;55.680;37.540;2022-09-17T10:42:46;98027.06;;;19.47;46.68
67727;BME280;54525;55.680;37.540;2022-09-17T10:45:29;98042.06;;;19.48;47.07
67727;BME280;54525;55.680;37.540;2022-09-17T10:47:56;98038.34;;;19.49;47.47
67727;BME280;54525;55.680;37.540;2022-09-17T10:50:26;98053.66;;;19.49;48.08
67727;BME280;54525;55.680;37.540;2022-09-17T10:52:59;98058.16;;;19.48;48.03
67727;BME280;54525;55.680;37.540;2022-09-17T10:58:07;98057.97;;;19.50;48.72
67727;BME280;54525;55.680;37.540;2022-09-17T11:03:40;98045.38;;;19.50;48.71
67727;BME280;54525;55.680;37.540;2022-09-17T11:12:44;98046.03;;;19.46;48.98
67727;BME280;54525;55.680;37.540;2022-09-17T11:18:02;98048.09;;;19.44;49.01
67727;BME280;54525;55.680;37.540;2022-09-17T11:21:17;98058.00;;;19.43;49.08
67727;BME280;54525;55.680;37.540;2022-09-17T11:34:41;98049.75;;;19.45;48.73
67727;BME280;54525;55.680;37.540;2022-09-17T11:37:11;98053.47;;;19.44;48.87
67727;BME280;54525;55.680;37.540;2022-09-17T11:42:18;98052.81;;;19.48;48.94
67727;BME280;54525;55.680;37.540;2022-09-17T11:45:10;98049.94;;;19.50;48.82
67727;BME280;54525;55.680;37.540;2022-09-17T11:47:43;98043.72;;;19.49;48.64
67727;BME280;54525;55.680;37.540;2022-09-17T11:52:51;98051.56;;;19.51;48.06
67727;BME280;54525;55.680;37.540;2022-09-17T11:55:30;98045.97;;;19.52;48.01
67727;BME280;54525;55.680;37.540;2022-09-17T11:58:11;98056.50;;;19.54;47.93
67727;BME280;54525;55.680;37.540;2022-09-17T12:00:44;98060.84;;;19.55;48.12
67727;BME280;54525;55.680;37.540;2022-09-17T12:03:15;98060.38;;;19.58;47.96
67727;BME280;54525;55.680;37.540;2022-09-17T12:05:47;98057.50;;;19.60;47.79
67727;BME280;54525;55.680;37.540;2022-09-17T12:08:33;98060.19;;;19.60;47.86
67727;BME280;54525;55.680;37.540;2022-09-17T12:11:13;98052.16;;;19.60;47.90
67727;BME280;54525;55.680;37.540;2022-09-17T12:13:57;98068.25;;;19.60;48.25
67727;BME280;54525;55.680;37.540;2022-09-17T12:16:57;98055.03;;;19.58;47.97
67727;BME280;54525;55.680;37.540;2022-09-17T12:19:38;98062.25;;;19.58;47.95
67727;BME280;54525;55.680;37.540;2022-09-17T12:22:09;98057.94;;;19.57;47.87
67727;BME280;54525;55.680;37.540;2022-09-17T12:24:37;98064.94;;;19.58;47.66
67727;BME280;54525;55.680;37.540;2022-09-17T12:37:17;98070.50;;;19.56;47.44
67727;BME280;54525;55.680;37.540;2022-09-17T12:40:06;98073.59;;;19.60;47.57
67727;BME280;54525;55.680;37.540;2022-09-17T12:59:43;98108.47;;;19.60;47.17
67727;BME280;54525;55.680;37.540;2022-09-17T13:02:26;98102.09;;;19.61;47.36
67727;BME280;54525;55.680;37.540;2022-09-17T13:11:00;98103.72;;;19.62;47.12
67727;BME280;54525;55.680;37.540;2022-09-17T13:16:19;98100.22;;;19.61;47.10
67727;BME280;54525;55.680;37.540;2022-09-17T13:23:48;98088.00;;;19.65;47.18
67727;BME280;54525;55.680;37.540;2022-09-17T13:26:17;98088.81;;;19.66;47.20
67727;BME280;54525;55.680;37.540;2022-09-17T13:28:45;98087.59;;;19.69;47.42
67727;BME280;54525;55.680;37.540;2022-09-17T13:31:11;98082.22;;;19.69;47.36
67727;BME280;54525;55.680;37.540;2022-09-17T13:39:02;98084.31;;;19.66;47.25
67727;BME280;54525;55.680;37.540;2022-09-17T13:41:29;98084.91;;;19.69;47.24
67727;BME280;54525;55.680;37.540;2022-09-17T13:43:56;98088.81;;;19.66;47.32
67727;BME280;54525;55.680;37.540;2022-09-17T13:46:24;98085.34;;;19.65;47.35
67727;BME280;54525;55.680;37.540;2022-09-17T13:48:57;98087.19;;;19.65;47.40
67727;BME280;54525;55.680;37.540;2022-09-17T13:54:04;98081.44;;;19.61;46.92
67727;BME280;54525;55.680;37.540;2022-09-17T13:59:17;98090.94;;;19.57;47.66
67727;BME280;54525;55.680;37.540;2022-09-17T14:17:55;98086.41;;;19.58;47.98
67727;BME280;54525;55.680;37.540;2022-09-17T14:20:21;98089.09;;;19.58;48.09
67727;BME280;54525;55.680;37.540;2022-09-17T14:22:58;98086.84;;;19.55;48.09
67727;BME280;54525;55.680;37.540;2022-09-17T14:25:40;98088.47;;;19.56;48.20
67727;BME280;54525;55.680;37.540;2022-09-17T14:28:22;98090.34;;;19.55;47.97
67727;BME280;54525;55.680;37.540;2022-09-17T14:30:53;98094.88;;;19.55;48.36
67727;BME280;54525;55.680;37.540;2022-09-17T14:33:26;98090.56;;;19.54;48.18
67727;BME280;54525;55.680;37.540;2022-09-17T14:36:15;98096.94;;;19.52;48.13
67727;BME280;54525;55.680;37.540;2022-09-17T14:38:50;98102.53;;;19.51;48.42
67727;BME280;54525;55.680;37.540;2022-09-17T14:41:32;98103.34;;;19.51;48.37
67727;BME280;54525;55.680;37.540;2022-09-17T14:44:08;98097.19;;;19.51;48.46
67727;BME280;54525;55.680;37.540;2022-09-17T14:46:59;98099.03;;;19.50;48.48
67727;BME280;54525;55.680;37.540;2022-09-17T14:49:35;98107.06;;;19.50;48.51
67727;BME280;54525;55.680;37.540;2022-09-17T14:52:04;98116.16;;;19.49;48.61
67727;BME280;54525;55.680;37.540;2022-09-17T14:54:43;98119.06;;;19.48;48.78
67727;BME280;54525;55.680;37.540;2022-09-17T14:59:53;98144.00;;;19.48;48.83
67727;BME280;54525;55.680;37.540;2022-09-17T15:02:26;98135.16;;;19.48;48.42
67727;BME280;54525;55.680;37.540;2022-09-17T15:04:52;98133.72;;;19.45;48.66
67727;BME280;54525;55.680;37.540;2022-09-17T15:07:19;98121.34;;;19.44;48.82
67727;BME280;54525;55.680;37.540;2022-09-17T15:09:45;98124.44;;;19.41;48.81
67727;BME280;54525;55.680;37.540;2022-09-17T15:12:14;98124.44;;;19.41;49.01
67727;BME280;54525;55.680;37.540;2022-09-17T15:14:42;98128.41;;;19.39;49.30
67727;BME280;54525;55.680;37.540;2022-09-17T15:17:15;98125.28;;;19.35;49.28
67727;BME280;54525;55.680;37.540;2022-09-17T15:19:45;98127.38;;;19.33;49.58
67727;BME280;54525;55.680;37.540;2022-09-17T15:22:20;98153.59;;;19.31;49.58
67727;BME280;54525;55.680;37.540;2022-09-17T15:25:21;98178.16;;;19.28;49.66
67727;BME280;54525;55.680;37.540;2022-09-17T15:27:53;98175.06;;;19.24;49.63
67727;BME280;54525;55.680;37.540;2022-09-17T15:30:22;98185.19;;;19.22;49.82
67727;BME280;54525;55.680;37.540;2022-09-17T15:32:52;98169.72;;;19.17;49.77
67727;BME280;54525;55.680;37.540;2022-09-17T15:35:22;98170.94;;;19.15;49.92
67727;BME280;54525;55.680;37.540;2022-09-17T15:37:50;98164.97;;;19.13;50.03
67727;BME280;54525;55.680;37.540;2022-09-17T15:43:00;98152.00;;;19.10;50.05
67727;BME280;54525;55.680;37.540;2022-09-17T15:45:28;98153.22;;;19.07;50.13
67727;BME280;54525;55.680;37.540;2022-09-17T15:47:59;98145.19;;;19.07;50.00
67727;BME280;54525;55.680;37.540;2022-09-17T15:50:27;98142.94;;;19.04;50.07
67727;BME280;54525;55.680;37.540;2022-09-17T15:55:39;98147.50;;;18.97;50.22
67727;BME280;54525;55.680;37.540;2022-09-17T15:58:23;98146.88;;;18.95;50.20
67727;BME280;54525;55.680;37.540;2022-09-17T16:08:48;98174.28;;;18.83;50.54
67727;BME280;54525;55.680;37.540;2022-09-17T16:11:14;98172.88;;;18.74;50.64
67727;BME280;54525;55.680;37.540;2022-09-17T16:13:40;98170.19;;;18.74;50.59
67727;BME280;54525;55.680;37.540;2022-09-17T16:16:07;98169.13;;;18.75;50.63
67727;BME280;54525;55.680;37.540;2022-09-17T16:18:36;98175.53;;;18.74;50.61
67727;BME280;54525;55.680;37.540;2022-09-17T16:21:02;98186.25;;;18.74;50.57